Pagrindinis puslapis
METAR-TAF:

METAR-TAF

Oro uostai :

Wainwright, Aliaska, Jungtinės Amerikos Valstijos

platuma: 64-50N, ilguma: 147-37W, Aukštis: 137 m

Dabartinis oras

Ataskaita buvo paskelbta 33 minutes, ne 18:58 UTC
Ramus vėjas
Temperatūra -37°C
Drėgmė 73%
Slėgis 1018 hPa
Matomumas: 16.1 km
Giedras dangus

METAR: PAFB 161858Z AUTO 00000KT 10SM CLR M37/M40 A3006 RMK AO2 SLP204 T13671400

Laikas: 10:31 (19:31 UTC)


TAF: trūkstamas

Orai ataskaitas ir orų prognozės (METAR, TAF).

turimą stotys yra geltonos ir raudonos taškus žemėlapyje.

Perkelti pele per norėdami pamatyti stoties vardą.

Tada spustelėkite, norėdami matyti oro stebėjimo ir prognozės.

Norėdami pakeisti žemėlapį: spustelėkite ant žalios mygtukų su juodo kryžiaus žemyn,; žalią mygtuką su brūkšneliu, jei norite nutolinti; arba žalių rodyklių gretimoms žemėlapius.


METAR-TAF: